Accueil
METAR-TAF:

METAR-TAF

Aéroports :

Chanute, Kansas, États-Unis

latitude: 37-40-13N, longitude: 095-29-03W, altitude: 305 m

Observation

Le bulletin a été fait il y a 1 heure et 5 minutes, à 00:52 UTC
Vent 6 kt de sud
Température -1°C
Humidité 80%
Pression 1025 hPa
Visibilité: 16.1 km
Ciel clair

METAR: KCNU 110052Z AUTO 17006KT 10SM CLR M01/M04 A3027 RMK AO2 SLP262 T10061044

Heure: 19:57 (01:57 UTC)

Prévision

Le bulletin a été fait il y a 2 heures et 37 minutes, à 23:20 UTC
Prévision valable du 11 à 00 UTC au 11 à 24 UTC
Vent 5 kt de sud
Visibilité: 10 km
Ciel clair
A partir de 11 à 1700 UTC
Vent 15 kt de sud avec des rafales jusqu'à 23 kt
Visibilité: 10 km
Quelques nuages à une hauteur de 25000 ft

TAF: KCNU 102320Z 1100/1124 19005KT P6SM SKC FM111700 19015G23KT P6SM FEW250

Observations et prévisions météorologiques de plus de 4000 aéroports (messages METAR et TAF).

Les stations disponibles sont représentées par des disques jaunes et rouges sur la carte.

Passer la souris dessus pour voir le nom de la station.

Cliquer dessus pour voir les observations et prévisions météorologiques.

Pour changer de carte: cliquez sur les boutons verts avec une croix noire pour zoomer, sur le bouton vert avec un tiret pour effectuer un zoom arrière, ou sur les flèches vertes pour les cartes adjacentes.


METAR-TAF: